7966一尾中特网站
 找回密碼
 注冊

掃一掃,訪問微社區

EDA365大咖直播--《用數據說話--HFSS仿真實操案例講解》

推薦主題

本版置頂 隱藏置頂帖 [仿真討論] SI仿真工具閑聊 63人參與 attach_img  ...2345 yawyw 2016-4-9 07:33 62 8112 niuwa 2020-1-15 10:19
本版置頂 隱藏置頂帖 那些年,風靡全球的SI,PI,EMC BOOKS(2009--2015)外文版 127人參與 attach_img  ...23456..9 櫻桃海彌 2016-2-2 17:33 127 11958 依利達 2020-2-8 13:47
      
求助,hfss變量端口問題 1人參與 New 呵呵113366 2020-2-18 09:40 3 17 呵呵113366 2020-2-18 10:52
[ADS仿真] ADS抽取S參數端接電阻阻值可以改變嗎,看很多教材都是默認50ohm,差分100ohm 3人參與 attach_img New hyxs714154 2020-2-16 22:08 4 71 briantseng 2020-2-18 10:42
[仿真討論] 關于SIWAVE仿真方法的探討 1人參與 attach_img New Jancho 2020-2-15 21:10 1 87 11xiaohehe 2020-2-16 02:03
[Cadence Sigrity] PowerSI 怎么進行DC仿真 3人參與 新人帖 attach_img New 電子學生 2020-2-15 18:01 3 106 aarom 2020-2-16 16:23
[仿真討論] 如何對DCS控制系統進行抗干擾設計 1人參與 New uperrua 2020-2-14 13:04 1 71 依利達 2020-2-14 17:16
[仿真討論] 在進行PCB設計時是否要做信號完整性分析? 1人參與 New uperrua 2020-2-13 15:06 1 77 ExxNEN 2020-2-13 18:28
[Cadence Sigrity] power si求助 2人參與 新人帖 attach_img New wangyu88808 2020-2-13 11:07 5 73 dzkcool 2020-2-13 20:28
[仿真討論] 非高速PCB是否需要考慮信號完整性 2人參與 New ulppknot 2020-2-12 17:06 2 88 依利達 2020-2-13 08:44
[ADS仿真] ADS運行運行仿真后,原理圖里的標注網絡在plot窗口無法選擇 3人參與 attach_img New daweijms 2020-2-12 11:06 3 84 hyxs714154 2020-2-17 10:20
[Cadence Sigrity] SIGRITY POWER SI問題求助 2人參與 attach_img New 11xiaohehe 2020-2-11 18:01 3 93 11xiaohehe 2020-2-16 02:21
[HyperLynx] brd to hyp, unrouted 1人參與 New jhlarn.c 2020-2-11 17:18 1 66 依利達 2020-2-11 21:15
[仿真討論] 為什么要重視系統化信號完整性設計的方法 1人參與 New mytomorrow 2020-2-11 14:53 1 77 CCxiaom 2020-2-11 19:50
[仿真討論] 了解一下信號完整性設計中的5類典型問題 2人參與 attach_img haidaowang 2020-2-10 16:37 2 110 sunnypang 2020-2-10 19:04
[仿真討論] 這是一篇有關SI設計與SI仿真的分享 1人參與 mytomorrow 2020-2-7 10:00 1 132 ExxNEN 2020-2-7 21:30
[Cadence Sigrity] sigrity提取差分線的S參數,電容兩端的線必須merge嘛 3人參與 attach_img hyxs714154 2020-2-6 20:01 7 152 11xiaohehe 2020-2-16 02:08
[仿真討論] 請問在HFSS中如何仿真粗糙度 1人參與 starsky0816 2020-2-6 18:07 1 84 willyeing 2020-2-6 21:55
[HyperLynx] Hyperlynx 可做 TDR 分析嗎? 3人參與 新人帖 jhlarn.c 2020-2-6 13:07 4 89 jhlarn.c 2020-2-10 10:37
[仿真討論] 信號完整性只能用SI/PI進行仿真嗎?有沒有其他常用軟件? 2人參與 uelophim 2020-2-6 12:18 2 94 willyeing 2020-2-6 21:58
[仿真討論] 看看SI/PI仿真是對哪些進行信號進行分析的 1人參與 uperrua 2020-2-5 12:04 1 120 ExxNEN 2020-2-5 18:44
[資料下載] DesignCon 2020 13人參與 新人帖 - [閱讀權限 30] cxyfarmer 2020-2-4 19:39 13 35 niuwa 2020-2-17 11:58
[Hspice仿真] 咨詢一下Hspice軟件哪個版本好用點,想入門仿真 3人參與 cpupygu 2020-2-4 12:08 3 91 willyeing 2020-2-6 21:54
[仿真討論] 請問PCB上高速信號走線以及連接器, 線材介接模擬 2人參與 gprs 2020-2-3 14:10 2 76 willyeing 2020-2-6 22:06
[仿真討論] 串聯端接電阻對信號上升時間的影響 2人參與 NJNU 2020-2-3 10:48 2 93 willyeing 2020-2-6 22:09
下一頁 »
還可輸入 80 個字符
您需要登錄后才可以發帖 登錄 | 注冊

本版積分規則

EDA365公眾號

關于我們|手機版|EDA365電子論壇網 ( 粵ICP備18020198號 )

GMT+8, 2020-2-18 11:50 , Processed in 0.093750 second(s), 13 queries , Gzip On.

深圳市墨知創新科技有限公司

地址:深圳市南山區科技生態園2棟A座805 電話:19925233282

返回頂部 返回版塊
7966一尾中特网站
重庆时时彩开奖号码 山东时时彩计划 平码怎么算买中 皇冠网足球即时指数 查看河北福彩排列七 双色球基本走势图怎么看 极速时时彩开奖器 T6彩票苹果 极速快乐十分软件 山东十一选五走势图表爱彩乐